sensor_id;sensor_type;location;lat;lon;timestamp;temperature;humidity
5457;DHT22;2751;49.802;9.944;2023-04-15T00:00:17;7.10;99.90
5457;DHT22;2751;49.802;9.944;2023-04-15T00:02:45;7.00;99.90
5457;DHT22;2751;49.802;9.944;2023-04-15T00:05:12;7.00;99.90
5457;DHT22;2751;49.802;9.944;2023-04-15T00:07:41;7.00;99.90
5457;DHT22;2751;49.802;9.944;2023-04-15T00:10:08;6.90;1.00
5457;DHT22;2751;49.802;9.944;2023-04-15T00:12:35;6.90;1.00
5457;DHT22;2751;49.802;9.944;2023-04-15T00:15:02;6.90;1.00
5457;DHT22;2751;49.802;9.944;2023-04-15T00:17:29;6.80;1.00
5457;DHT22;2751;49.802;9.944;2023-04-15T00:19:56;6.80;1.00
5457;DHT22;2751;49.802;9.944;2023-04-15T00:22:24;6.80;1.00
5457;DHT22;2751;49.802;9.944;2023-04-15T00:24:53;6.80;1.00
5457;DHT22;2751;49.802;9.944;2023-04-15T00:27:20;6.80;1.00
5457;DHT22;2751;49.802;9.944;2023-04-15T00:29:47;7.10;1.00
5457;DHT22;2751;49.802;9.944;2023-04-15T00:32:13;6.70;1.00
5457;DHT22;2751;49.802;9.944;2023-04-15T00:34:41;6.70;1.00
5457;DHT22;2751;49.802;9.944;2023-04-15T00:37:08;6.70;1.00
5457;DHT22;2751;49.802;9.944;2023-04-15T00:39:35;6.70;1.00
5457;DHT22;2751;49.802;9.944;2023-04-15T00:42:03;6.80;1.00
5457;DHT22;2751;49.802;9.944;2023-04-15T00:44:30;7.10;1.00
5457;DHT22;2751;49.802;9.944;2023-04-15T00:46:59;6.80;1.00
5457;DHT22;2751;49.802;9.944;2023-04-15T00:49:27;6.70;1.00
5457;DHT22;2751;49.802;9.944;2023-04-15T00:51:54;6.80;1.00
5457;DHT22;2751;49.802;9.944;2023-04-15T00:54:21;6.80;8.20
5457;DHT22;2751;49.802;9.944;2023-04-15T00:56:48;6.80;1.00
5457;DHT22;2751;49.802;9.944;2023-04-15T00:59:16;6.80;1.00
5457;DHT22;2751;49.802;9.944;2023-04-15T01:01:44;6.80;1.00
5457;DHT22;2751;49.802;9.944;2023-04-15T01:04:11;6.80;1.00
5457;DHT22;2751;49.802;9.944;2023-04-15T01:06:38;6.80;1.00
5457;DHT22;2751;49.802;9.944;2023-04-15T01:09:05;6.90;1.00
5457;DHT22;2751;49.802;9.944;2023-04-15T01:11:32;6.90;1.00
5457;DHT22;2751;49.802;9.944;2023-04-15T01:13:59;6.90;1.00
5457;DHT22;2751;49.802;9.944;2023-04-15T01:16:28;7.00;1.00
5457;DHT22;2751;49.802;9.944;2023-04-15T01:18:55;7.00;1.00
5457;DHT22;2751;49.802;9.944;2023-04-15T01:21:22;7.00;1.00
5457;DHT22;2751;49.802;9.944;2023-04-15T01:23:50;7.00;1.00
5457;DHT22;2751;49.802;9.944;2023-04-15T01:26:20;7.30;1.00
5457;DHT22;2751;49.802;9.944;2023-04-15T01:28:48;7.00;1.00
5457;DHT22;2751;49.802;9.944;2023-04-15T01:31:15;7.00;1.00
5457;DHT22;2751;49.802;9.944;2023-04-15T01:33:42;7.00;1.00
5457;DHT22;2751;49.802;9.944;2023-04-15T01:36:09;7.00;1.00
5457;DHT22;2751;49.802;9.944;2023-04-15T01:38:37;7.00;1.00
5457;DHT22;2751;49.802;9.944;2023-04-15T01:41:04;6.90;1.00
5457;DHT22;2751;49.802;9.944;2023-04-15T01:43:34;6.90;1.00
5457;DHT22;2751;49.802;9.944;2023-04-15T01:46:01;6.90;1.00
5457;DHT22;2751;49.802;9.944;2023-04-15T01:48:28;6.90;1.00
5457;DHT22;2751;49.802;9.944;2023-04-15T01:50:56;6.90;1.00
5457;DHT22;2751;49.802;9.944;2023-04-15T01:53:24;6.80;1.00
5457;DHT22;2751;49.802;9.944;2023-04-15T01:55:51;7.10;1.00
5457;DHT22;2751;49.802;9.944;2023-04-15T01:58:18;6.80;1.00
5457;DHT22;2751;49.802;9.944;2023-04-15T02:00:47;6.80;1.00
5457;DHT22;2751;49.802;9.944;2023-04-15T02:03:15;6.80;1.00
5457;DHT22;2751;49.802;9.944;2023-04-15T02:05:42;6.80;1.00
5457;DHT22;2751;49.802;9.944;2023-04-15T02:08:10;6.80;1.00
5457;DHT22;2751;49.802;9.944;2023-04-15T02:10:37;6.80;1.00
5457;DHT22;2751;49.802;9.944;2023-04-15T02:13:05;6.80;1.00
5457;DHT22;2751;49.802;9.944;2023-04-15T02:15:31;6.80;14.80
5457;DHT22;2751;49.802;9.944;2023-04-15T02:18:00;7.00;26.90
5457;DHT22;2751;49.802;9.944;2023-04-15T02:20:27;6.80;91.60
5457;DHT22;2751;49.802;9.944;2023-04-15T02:22:56;6.70;99.90
5457;DHT22;2751;49.802;9.944;2023-04-15T02:25:23;6.80;99.90
5457;DHT22;2751;49.802;9.944;2023-04-15T02:27:50;6.80;99.90
5457;DHT22;2751;49.802;9.944;2023-04-15T02:30:18;6.70;99.90
5457;DHT22;2751;49.802;9.944;2023-04-15T02:32:45;6.90;99.90
5457;DHT22;2751;49.802;9.944;2023-04-15T02:35:14;6.50;99.90
5457;DHT22;2751;49.802;9.944;2023-04-15T02:37:41;6.50;1.00
5457;DHT22;2751;49.802;9.944;2023-04-15T02:40:11;6.40;1.00
5457;DHT22;2751;49.802;9.944;2023-04-15T02:42:38;6.40;1.00
5457;DHT22;2751;49.802;9.944;2023-04-15T02:45:05;6.30;99.90
5457;DHT22;2751;49.802;9.944;2023-04-15T02:47:33;6.20;1.00
5457;DHT22;2751;49.802;9.944;2023-04-15T02:50:01;6.10;39.20
5457;DHT22;2751;49.802;9.944;2023-04-15T02:52:30;6.10;99.90
5457;DHT22;2751;49.802;9.944;2023-04-15T02:54:57;6.10;83.70
5457;DHT22;2751;49.802;9.944;2023-04-15T02:57:25;6.10;60.90
5457;DHT22;2751;49.802;9.944;2023-04-15T02:59:53;6.10;99.90
5457;DHT22;2751;49.802;9.944;2023-04-15T03:02:20;6.00;99.90
5457;DHT22;2751;49.802;9.944;2023-04-15T03:04:47;6.00;99.90
5457;DHT22;2751;49.802;9.944;2023-04-15T03:07:14;6.00;99.90
5457;DHT22;2751;49.802;9.944;2023-04-15T03:09:42;6.10;99.90
5457;DHT22;2751;49.802;9.944;2023-04-15T03:12:09;6.10;99.90
5457;DHT22;2751;49.802;9.944;2023-04-15T03:14:36;6.10;1.00
5457;DHT22;2751;49.802;9.944;2023-04-15T03:17:03;6.20;1.00
5457;DHT22;2751;49.802;9.944;2023-04-15T03:19:30;6.20;1.00
5457;DHT22;2751;49.802;9.944;2023-04-15T03:21:57;6.20;1.00
5457;DHT22;2751;49.802;9.944;2023-04-15T03:24:23;6.20;50.00
5457;DHT22;2751;49.802;9.944;2023-04-15T03:26:52;6.30;1.00
5457;DHT22;2751;49.802;9.944;2023-04-15T03:29:19;6.30;1.00
5457;DHT22;2751;49.802;9.944;2023-04-15T03:31:46;6.00;1.00
5457;DHT22;2751;49.802;9.944;2023-04-15T03:34:13;6.40;1.00
5457;DHT22;2751;49.802;9.944;2023-04-15T03:36:40;6.50;99.90
5457;DHT22;2751;49.802;9.944;2023-04-15T03:39:07;6.50;99.90
5457;DHT22;2751;49.802;9.944;2023-04-15T03:41:34;6.50;99.90
5457;DHT22;2751;49.802;9.944;2023-04-15T03:44:02;6.40;99.90
5457;DHT22;2751;49.802;9.944;2023-04-15T03:46:29;6.40;1.00
5457;DHT22;2751;49.802;9.944;2023-04-15T03:48:56;6.70;1.00
5457;DHT22;2751;49.802;9.944;2023-04-15T03:51:23;6.30;1.00
5457;DHT22;2751;49.802;9.944;2023-04-15T03:53:51;6.30;1.00
5457;DHT22;2751;49.802;9.944;2023-04-15T03:56:18;6.30;1.00
5457;DHT22;2751;49.802;9.944;2023-04-15T03:58:45;6.30;1.00
5457;DHT22;2751;49.802;9.944;2023-04-15T04:01:13;6.30;1.00
5457;DHT22;2751;49.802;9.944;2023-04-15T04:03:41;6.30;1.00
5457;DHT22;2751;49.802;9.944;2023-04-15T04:06:07;6.30;1.00
5457;DHT22;2751;49.802;9.944;2023-04-15T04:08:34;6.30;1.00
5457;DHT22;2751;49.802;9.944;2023-04-15T04:11:01;6.30;1.00
5457;DHT22;2751;49.802;9.944;2023-04-15T04:13:28;6.30;1.00
5457;DHT22;2751;49.802;9.944;2023-04-15T04:15:55;6.30;1.00
5457;DHT22;2751;49.802;9.944;2023-04-15T04:18:24;6.30;1.00
5457;DHT22;2751;49.802;9.944;2023-04-15T04:20:50;6.30;1.00
5457;DHT22;2751;49.802;9.944;2023-04-15T04:23:17;6.30;1.00
5457;DHT22;2751;49.802;9.944;2023-04-15T04:25:44;6.30;1.00
5457;DHT22;2751;49.802;9.944;2023-04-15T04:28:12;6.30;1.00
5457;DHT22;2751;49.802;9.944;2023-04-15T04:30:39;6.20;1.00
5457;DHT22;2751;49.802;9.944;2023-04-15T04:33:06;6.20;1.00
5457;DHT22;2751;49.802;9.944;2023-04-15T04:35:34;6.20;67.40
5457;DHT22;2751;49.802;9.944;2023-04-15T04:38:02;6.10;32.00
5457;DHT22;2751;49.802;9.944;2023-04-15T04:40:29;6.10;99.90
5457;DHT22;2751;49.802;9.944;2023-04-15T04:42:56;6.00;1.00
5457;DHT22;2751;49.802;9.944;2023-04-15T04:45:23;6.00;1.00
5457;DHT22;2751;49.802;9.944;2023-04-15T04:47:50;6.00;3.50
5457;DHT22;2751;49.802;9.944;2023-04-15T04:50:16;6.00;99.90
5457;DHT22;2751;49.802;9.944;2023-04-15T04:52:45;6.00;1.00
5457;DHT22;2751;49.802;9.944;2023-04-15T04:55:11;5.90;60.80
5457;DHT22;2751;49.802;9.944;2023-04-15T04:57:39;6.10;99.90
5457;DHT22;2751;49.802;9.944;2023-04-15T05:00:06;5.80;99.90
5457;DHT22;2751;49.802;9.944;2023-04-15T05:02:34;5.90;99.90
5457;DHT22;2751;49.802;9.944;2023-04-15T05:05:01;5.80;99.90
5457;DHT22;2751;49.802;9.944;2023-04-15T05:07:28;5.80;99.90
5457;DHT22;2751;49.802;9.944;2023-04-15T05:09:56;5.80;99.90
5457;DHT22;2751;49.802;9.944;2023-04-15T05:12:23;5.90;99.90
5457;DHT22;2751;49.802;9.944;2023-04-15T05:14:50;5.90;99.90
5457;DHT22;2751;49.802;9.944;2023-04-15T05:17:17;5.90;99.90
5457;DHT22;2751;49.802;9.944;2023-04-15T05:19:43;6.00;1.00
5457;DHT22;2751;49.802;9.944;2023-04-15T05:22:10;6.00;1.00
5457;DHT22;2751;49.802;9.944;2023-04-15T05:24:37;6.10;1.00
5457;DHT22;2751;49.802;9.944;2023-04-15T05:27:05;6.10;99.90
5457;DHT22;2751;49.802;9.944;2023-04-15T05:29:33;6.20;99.90
5457;DHT22;2751;49.802;9.944;2023-04-15T05:32:00;6.30;1.00
5457;DHT22;2751;49.802;9.944;2023-04-15T05:34:27;6.50;1.00
5457;DHT22;2751;49.802;9.944;2023-04-15T05:36:53;6.60;99.90
5457;DHT22;2751;49.802;9.944;2023-04-15T05:39:22;6.70;1.00
5457;DHT22;2751;49.802;9.944;2023-04-15T05:41:49;6.90;1.00
5457;DHT22;2751;49.802;9.944;2023-04-15T05:44:17;7.00;99.90
5457;DHT22;2751;49.802;9.944;2023-04-15T05:46:44;7.10;99.90
5457;DHT22;2751;49.802;9.944;2023-04-15T05:49:11;7.20;99.90
5457;DHT22;2751;49.802;9.944;2023-04-15T05:51:38;7.30;99.90
5457;DHT22;2751;49.802;9.944;2023-04-15T05:54:05;7.40;99.90
5457;DHT22;2751;49.802;9.944;2023-04-15T05:56:32;7.50;99.90
5457;DHT22;2751;49.802;9.944;2023-04-15T05:58:59;7.60;99.90
5457;DHT22;2751;49.802;9.944;2023-04-15T06:01:28;7.60;64.00
5457;DHT22;2751;49.802;9.944;2023-04-15T06:03:55;7.60;47.40
5457;DHT22;2751;49.802;9.944;2023-04-15T06:06:21;7.50;56.30
5457;DHT22;2751;49.802;9.944;2023-04-15T06:08:48;7.50;77.70
5457;DHT22;2751;49.802;9.944;2023-04-15T06:11:16;7.50;67.80
5457;DHT22;2751;49.802;9.944;2023-04-15T06:13:43;8.00;46.90
5457;DHT22;2751;49.802;9.944;2023-04-15T06:16:10;7.50;53.60
5457;DHT22;2751;49.802;9.944;2023-04-15T06:18:38;7.50;41.80
5457;DHT22;2751;49.802;9.944;2023-04-15T06:21:05;7.60;46.50
5457;DHT22;2751;49.802;9.944;2023-04-15T06:23:33;7.60;25.70
5457;DHT22;2751;49.802;9.944;2023-04-15T06:26:00;7.60;24.80
5457;DHT22;2751;49.802;9.944;2023-04-15T06:28:27;7.70;19.10
5457;DHT22;2751;49.802;9.944;2023-04-15T06:30:54;7.80;1.00
5457;DHT22;2751;49.802;9.944;2023-04-15T06:33:21;8.10;1.00
5457;DHT22;2751;49.802;9.944;2023-04-15T06:35:49;7.90;1.00
5457;DHT22;2751;49.802;9.944;2023-04-15T06:38:16;8.00;1.00
5457;DHT22;2751;49.802;9.944;2023-04-15T06:40:43;8.10;1.00
5457;DHT22;2751;49.802;9.944;2023-04-15T06:43:10;8.20;1.00
5457;DHT22;2751;49.802;9.944;2023-04-15T06:45:37;8.30;1.00
5457;DHT22;2751;49.802;9.944;2023-04-15T06:48:04;8.40;1.00
5457;DHT22;2751;49.802;9.944;2023-04-15T06:50:31;8.50;1.00
5457;DHT22;2751;49.802;9.944;2023-04-15T06:53:02;8.60;1.00
5457;DHT22;2751;49.802;9.944;2023-04-15T06:55:29;8.90;1.00
5457;DHT22;2751;49.802;9.944;2023-04-15T06:57:58;9.20;1.00
5457;DHT22;2751;49.802;9.944;2023-04-15T07:00:25;9.00;1.00
5457;DHT22;2751;49.802;9.944;2023-04-15T07:02:53;9.00;1.00
5457;DHT22;2751;49.802;9.944;2023-04-15T07:05:21;9.20;1.00
5457;DHT22;2751;49.802;9.944;2023-04-15T07:07:48;8.90;1.00
5457;DHT22;2751;49.802;9.944;2023-04-15T07:10:16;9.00;1.00
5457;DHT22;2751;49.802;9.944;2023-04-15T07:12:43;9.00;1.00
5457;DHT22;2751;49.802;9.944;2023-04-15T07:15:10;9.10;1.00
5457;DHT22;2751;49.802;9.944;2023-04-15T07:17:37;9.30;1.00
5457;DHT22;2751;49.802;9.944;2023-04-15T07:20:05;9.30;1.00
5457;DHT22;2751;49.802;9.944;2023-04-15T07:22:32;9.40;1.00
5457;DHT22;2751;49.802;9.944;2023-04-15T07:24:59;9.50;1.00
5457;DHT22;2751;49.802;9.944;2023-04-15T07:27:28;9.60;1.00
5457;DHT22;2751;49.802;9.944;2023-04-15T07:29:55;10.10;1.00
5457;DHT22;2751;49.802;9.944;2023-04-15T07:32:22;9.80;1.00
5457;DHT22;2751;49.802;9.944;2023-04-15T07:34:49;10.20;1.00
5457;DHT22;2751;49.802;9.944;2023-04-15T07:37:16;10.10;1.00
5457;DHT22;2751;49.802;9.944;2023-04-15T07:39:43;10.10;1.00
5457;DHT22;2751;49.802;9.944;2023-04-15T07:42:10;10.30;1.00
5457;DHT22;2751;49.802;9.944;2023-04-15T07:44:38;10.50;1.00
5457;DHT22;2751;49.802;9.944;2023-04-15T07:47:05;10.50;1.00
5457;DHT22;2751;49.802;9.944;2023-04-15T07:49:32;10.50;1.00
5457;DHT22;2751;49.802;9.944;2023-04-15T07:51:59;10.80;1.00
5457;DHT22;2751;49.802;9.944;2023-04-15T07:54:26;10.90;1.00
5457;DHT22;2751;49.802;9.944;2023-04-15T07:56:53;11.10;1.00
5457;DHT22;2751;49.802;9.944;2023-04-15T07:59:20;11.20;1.00
5457;DHT22;2751;49.802;9.944;2023-04-15T08:01:49;11.50;1.00
5457;DHT22;2751;49.802;9.944;2023-04-15T08:04:16;11.90;1.00
5457;DHT22;2751;49.802;9.944;2023-04-15T08:06:43;11.90;1.00
5457;DHT22;2751;49.802;9.944;2023-04-15T08:09:09;11.60;1.00
5457;DHT22;2751;49.802;9.944;2023-04-15T08:11:37;11.70;1.00
5457;DHT22;2751;49.802;9.944;2023-04-15T08:14:04;11.80;1.00
5457;DHT22;2751;49.802;9.944;2023-04-15T08:16:31;12.10;1.00
5457;DHT22;2751;49.802;9.944;2023-04-15T08:18:59;12.40;1.00
5457;DHT22;2751;49.802;9.944;2023-04-15T08:21:26;12.60;1.00
5457;DHT22;2751;49.802;9.944;2023-04-15T08:23:55;12.50;1.00
5457;DHT22;2751;49.802;9.944;2023-04-15T08:26:22;12.30;1.00
5457;DHT22;2751;49.802;9.944;2023-04-15T08:28:49;12.20;1.00
5457;DHT22;2751;49.802;9.944;2023-04-15T08:31:17;12.00;1.00
5457;DHT22;2751;49.802;9.944;2023-04-15T08:33:44;12.20;1.00
5457;DHT22;2751;49.802;9.944;2023-04-15T08:36:13;12.50;1.00
5457;DHT22;2751;49.802;9.944;2023-04-15T08:38:40;12.80;1.00
5457;DHT22;2751;49.802;9.944;2023-04-15T08:41:11;12.60;1.00
5457;DHT22;2751;49.802;9.944;2023-04-15T08:43:51;12.50;1.00
5457;DHT22;2751;49.802;9.944;2023-04-15T08:46:18;12.40;1.00
5457;DHT22;2751;49.802;9.944;2023-04-15T08:48:47;12.40;1.00
5457;DHT22;2751;49.802;9.944;2023-04-15T08:51:15;12.60;1.00
5457;DHT22;2751;49.802;9.944;2023-04-15T08:53:43;12.80;1.00
5457;DHT22;2751;49.802;9.944;2023-04-15T08:56:13;13.10;1.00
5457;DHT22;2751;49.802;9.944;2023-04-15T08:58:40;13.20;1.00
5457;DHT22;2751;49.802;9.944;2023-04-15T09:01:07;13.30;1.00
5457;DHT22;2751;49.802;9.944;2023-04-15T09:03:34;13.30;1.00
5457;DHT22;2751;49.802;9.944;2023-04-15T09:06:03;13.40;1.00
5457;DHT22;2751;49.802;9.944;2023-04-15T09:08:32;13.60;1.00
5457;DHT22;2751;49.802;9.944;2023-04-15T09:11:00;13.80;1.00
5457;DHT22;2751;49.802;9.944;2023-04-15T09:13:27;13.40;1.00
5457;DHT22;2751;49.802;9.944;2023-04-15T09:15:54;13.00;1.00
5457;DHT22;2751;49.802;9.944;2023-04-15T09:18:27;13.00;1.00
5457;DHT22;2751;49.802;9.944;2023-04-15T09:20:55;13.00;1.00
5457;DHT22;2751;49.802;9.944;2023-04-15T09:23:22;12.80;1.00
5457;DHT22;2751;49.802;9.944;2023-04-15T09:25:50;12.50;1.00
5457;DHT22;2751;49.802;9.944;2023-04-15T09:28:23;12.20;1.00
5457;DHT22;2751;49.802;9.944;2023-04-15T09:30:54;12.30;1.00
5457;DHT22;2751;49.802;9.944;2023-04-15T09:33:22;12.10;1.00
5457;DHT22;2751;49.802;9.944;2023-04-15T09:35:56;11.70;1.00
5457;DHT22;2751;49.802;9.944;2023-04-15T09:38:24;11.50;1.00
5457;DHT22;2751;49.802;9.944;2023-04-15T09:40:52;11.40;1.00
5457;DHT22;2751;49.802;9.944;2023-04-15T09:43:19;11.30;1.00
5457;DHT22;2751;49.802;9.944;2023-04-15T09:45:48;11.10;1.00
5457;DHT22;2751;49.802;9.944;2023-04-15T09:48:18;11.10;1.00
5457;DHT22;2751;49.802;9.944;2023-04-15T09:50:45;11.00;1.00
5457;DHT22;2751;49.802;9.944;2023-04-15T09:53:15;11.10;1.00
5457;DHT22;2751;49.802;9.944;2023-04-15T09:55:44;11.00;1.00
5457;DHT22;2751;49.802;9.944;2023-04-15T09:58:18;11.00;1.00
5457;DHT22;2751;49.802;9.944;2023-04-15T10:00:47;11.30;1.00
5457;DHT22;2751;49.802;9.944;2023-04-15T10:03:18;10.90;1.00
5457;DHT22;2751;49.802;9.944;2023-04-15T10:05:47;11.30;1.00
5457;DHT22;2751;49.802;9.944;2023-04-15T10:08:16;11.50;1.00
5457;DHT22;2751;49.802;9.944;2023-04-15T10:10:44;12.00;1.00
5457;DHT22;2751;49.802;9.944;2023-04-15T10:13:13;12.20;1.00
5457;DHT22;2751;49.802;9.944;2023-04-15T10:15:44;11.90;1.00
5457;DHT22;2751;49.802;9.944;2023-04-15T10:18:15;11.90;1.00
5457;DHT22;2751;49.802;9.944;2023-04-15T10:20:43;11.70;1.00
5457;DHT22;2751;49.802;9.944;2023-04-15T10:23:10;12.10;1.00
5457;DHT22;2751;49.802;9.944;2023-04-15T10:25:38;11.90;1.00
5457;DHT22;2751;49.802;9.944;2023-04-15T10:28:06;11.90;1.00
5457;DHT22;2751;49.802;9.944;2023-04-15T10:30:33;11.90;1.00
5457;DHT22;2751;49.802;9.944;2023-04-15T10:33:02;12.10;1.00
5457;DHT22;2751;49.802;9.944;2023-04-15T10:35:31;12.00;1.00
5457;DHT22;2751;49.802;9.944;2023-04-15T10:37:58;11.70;1.00
5457;DHT22;2751;49.802;9.944;2023-04-15T10:40:27;11.70;1.00
5457;DHT22;2751;49.802;9.944;2023-04-15T10:42:57;11.50;1.00
5457;DHT22;2751;49.802;9.944;2023-04-15T10:45:30;11.60;1.00
5457;DHT22;2751;49.802;9.944;2023-04-15T10:48:02;11.40;1.00
5457;DHT22;2751;49.802;9.944;2023-04-15T10:50:30;11.70;1.00
5457;DHT22;2751;49.802;9.944;2023-04-15T10:52:58;11.60;1.00
5457;DHT22;2751;49.802;9.944;2023-04-15T10:55:26;11.90;1.00
5457;DHT22;2751;49.802;9.944;2023-04-15T10:57:58;11.60;1.00
5457;DHT22;2751;49.802;9.944;2023-04-15T11:00:28;11.70;1.00
5457;DHT22;2751;49.802;9.944;2023-04-15T11:02:57;11.40;1.00
5457;DHT22;2751;49.802;9.944;2023-04-15T11:05:50;11.60;1.00
5457;DHT22;2751;49.802;9.944;2023-04-15T11:08:17;11.30;1.00
5457;DHT22;2751;49.802;9.944;2023-04-15T11:10:53;11.20;1.00
5457;DHT22;2751;49.802;9.944;2023-04-15T11:13:25;11.10;1.00
5457;DHT22;2751;49.802;9.944;2023-04-15T11:15:58;11.10;1.00
5457;DHT22;2751;49.802;9.944;2023-04-15T11:18:30;11.10;1.00
5457;DHT22;2751;49.802;9.944;2023-04-15T11:21:00;11.20;1.00
5457;DHT22;2751;49.802;9.944;2023-04-15T11:23:33;11.20;1.00
5457;DHT22;2751;49.802;9.944;2023-04-15T11:26:01;11.20;1.00
5457;DHT22;2751;49.802;9.944;2023-04-15T11:28:30;11.30;1.00
5457;DHT22;2751;49.802;9.944;2023-04-15T11:31:04;11.00;1.00
5457;DHT22;2751;49.802;9.944;2023-04-15T11:33:31;11.10;1.00
5457;DHT22;2751;49.802;9.944;2023-04-15T11:36:00;10.80;1.00
5457;DHT22;2751;49.802;9.944;2023-04-15T11:38:28;10.80;1.00
5457;DHT22;2751;49.802;9.944;2023-04-15T11:40:56;10.70;1.00
5457;DHT22;2751;49.802;9.944;2023-04-15T11:43:23;10.70;1.00
5457;DHT22;2751;49.802;9.944;2023-04-15T11:45:51;10.90;1.00
5457;DHT22;2751;49.802;9.944;2023-04-15T11:48:20;10.90;1.00
5457;DHT22;2751;49.802;9.944;2023-04-15T11:50:53;10.70;1.00
5457;DHT22;2751;49.802;9.944;2023-04-15T11:53:22;11.00;1.00
5457;DHT22;2751;49.802;9.944;2023-04-15T11:55:50;10.90;1.00
5457;DHT22;2751;49.802;9.944;2023-04-15T11:58:19;10.80;1.00
5457;DHT22;2751;49.802;9.944;2023-04-15T12:00:47;11.20;1.00
5457;DHT22;2751;49.802;9.944;2023-04-15T12:03:20;11.50;1.00
5457;DHT22;2751;49.802;9.944;2023-04-15T12:06:04;11.40;1.00
5457;DHT22;2751;49.802;9.944;2023-04-15T12:08:55;11.20;1.00
5457;DHT22;2751;49.802;9.944;2023-04-15T12:11:31;10.90;1.00
5457;DHT22;2751;49.802;9.944;2023-04-15T12:14:03;11.00;1.00
5457;DHT22;2751;49.802;9.944;2023-04-15T12:16:30;11.00;1.00
5457;DHT22;2751;49.802;9.944;2023-04-15T12:18:59;11.00;1.00
5457;DHT22;2751;49.802;9.944;2023-04-15T12:21:33;10.90;1.00
5457;DHT22;2751;49.802;9.944;2023-04-15T12:24:03;10.90;1.00
5457;DHT22;2751;49.802;9.944;2023-04-15T12:26:33;10.80;1.00
5457;DHT22;2751;49.802;9.944;2023-04-15T12:29:02;10.80;1.00
5457;DHT22;2751;49.802;9.944;2023-04-15T12:31:30;10.60;1.00
5457;DHT22;2751;49.802;9.944;2023-04-15T12:33:57;10.40;1.00
5457;DHT22;2751;49.802;9.944;2023-04-15T12:36:25;10.50;1.00
5457;DHT22;2751;49.802;9.944;2023-04-15T12:38:53;10.50;1.00
5457;DHT22;2751;49.802;9.944;2023-04-15T12:41:21;10.40;1.00
5457;DHT22;2751;49.802;9.944;2023-04-15T12:43:49;10.60;1.00
5457;DHT22;2751;49.802;9.944;2023-04-15T12:46:16;10.20;1.00
5457;DHT22;2751;49.802;9.944;2023-04-15T12:48:43;10.20;1.00
5457;DHT22;2751;49.802;9.944;2023-04-15T12:51:10;10.40;1.00
5457;DHT22;2751;49.802;9.944;2023-04-15T12:53:37;10.30;1.00
5457;DHT22;2751;49.802;9.944;2023-04-15T12:56:05;10.20;1.00
5457;DHT22;2751;49.802;9.944;2023-04-15T12:58:33;10.00;1.00
5457;DHT22;2751;49.802;9.944;2023-04-15T13:01:00;10.40;99.90
5457;DHT22;2751;49.802;9.944;2023-04-15T13:03:28;10.20;21.60
5457;DHT22;2751;49.802;9.944;2023-04-15T13:05:55;10.60;1.00
5457;DHT22;2751;49.802;9.944;2023-04-15T13:08:22;10.60;99.90
5457;DHT22;2751;49.802;9.944;2023-04-15T13:10:52;10.40;1.00
5457;DHT22;2751;49.802;9.944;2023-04-15T13:13:19;10.50;1.00
5457;DHT22;2751;49.802;9.944;2023-04-15T13:15:47;10.30;55.60
5457;DHT22;2751;49.802;9.944;2023-04-15T13:18:14;10.50;99.90
5457;DHT22;2751;49.802;9.944;2023-04-15T13:20:41;11.10;99.90
5457;DHT22;2751;49.802;9.944;2023-04-15T13:23:08;11.10;1.00
5457;DHT22;2751;49.802;9.944;2023-04-15T13:25:35;11.30;1.00
5457;DHT22;2751;49.802;9.944;2023-04-15T13:28:02;11.80;1.00
5457;DHT22;2751;49.802;9.944;2023-04-15T13:30:29;12.10;1.00
5457;DHT22;2751;49.802;9.944;2023-04-15T13:32:57;12.30;1.00
5457;DHT22;2751;49.802;9.944;2023-04-15T13:35:24;12.10;1.00
5457;DHT22;2751;49.802;9.944;2023-04-15T13:37:52;11.90;1.00
5457;DHT22;2751;49.802;9.944;2023-04-15T13:40:20;11.90;1.00
5457;DHT22;2751;49.802;9.944;2023-04-15T13:42:46;12.10;1.00
5457;DHT22;2751;49.802;9.944;2023-04-15T13:45:14;11.90;1.00
5457;DHT22;2751;49.802;9.944;2023-04-15T13:47:41;11.50;1.00
5457;DHT22;2751;49.802;9.944;2023-04-15T13:50:09;11.50;1.00
5457;DHT22;2751;49.802;9.944;2023-04-15T13:52:36;11.40;1.00
5457;DHT22;2751;49.802;9.944;2023-04-15T13:55:04;10.80;1.00
5457;DHT22;2751;49.802;9.944;2023-04-15T13:57:31;10.50;1.00
5457;DHT22;2751;49.802;9.944;2023-04-15T13:59:58;10.40;1.00
5457;DHT22;2751;49.802;9.944;2023-04-15T14:02:25;10.40;1.00
5457;DHT22;2751;49.802;9.944;2023-04-15T14:04:52;10.30;1.00
5457;DHT22;2751;49.802;9.944;2023-04-15T14:07:20;10.10;1.00
5457;DHT22;2751;49.802;9.944;2023-04-15T14:09:48;9.90;73.30
5457;DHT22;2751;49.802;9.944;2023-04-15T14:12:15;10.10;99.50
5457;DHT22;2751;49.802;9.944;2023-04-15T14:14:43;10.10;51.50
5457;DHT22;2751;49.802;9.944;2023-04-15T14:17:10;10.40;67.90
5457;DHT22;2751;49.802;9.944;2023-04-15T14:19:37;10.50;99.90
5457;DHT22;2751;49.802;9.944;2023-04-15T14:22:04;10.30;99.90
5457;DHT22;2751;49.802;9.944;2023-04-15T14:24:33;10.30;99.90
5457;DHT22;2751;49.802;9.944;2023-04-15T14:26:59;10.70;99.90
5457;DHT22;2751;49.802;9.944;2023-04-15T14:29:26;10.30;1.00
5457;DHT22;2751;49.802;9.944;2023-04-15T14:31:54;10.20;99.90
5457;DHT22;2751;49.802;9.944;2023-04-15T14:34:23;10.20;64.90
5457;DHT22;2751;49.802;9.944;2023-04-15T14:36:50;10.20;99.90
5457;DHT22;2751;49.802;9.944;2023-04-15T14:39:17;10.30;99.90
5457;DHT22;2751;49.802;9.944;2023-04-15T14:41:46;10.50;99.90
5457;DHT22;2751;49.802;9.944;2023-04-15T14:44:13;10.50;99.90
5457;DHT22;2751;49.802;9.944;2023-04-15T14:46:40;10.50;99.90
5457;DHT22;2751;49.802;9.944;2023-04-15T14:49:07;10.60;99.90
5457;DHT22;2751;49.802;9.944;2023-04-15T14:51:34;10.90;99.90
5457;DHT22;2751;49.802;9.944;2023-04-15T14:54:01;10.80;99.90
5457;DHT22;2751;49.802;9.944;2023-04-15T14:56:28;10.40;99.90
5457;DHT22;2751;49.802;9.944;2023-04-15T14:58:56;10.60;1.00
5457;DHT22;2751;49.802;9.944;2023-04-15T15:01:23;10.80;1.00
5457;DHT22;2751;49.802;9.944;2023-04-15T15:03:50;10.40;1.00
5457;DHT22;2751;49.802;9.944;2023-04-15T15:06:17;10.40;1.00
5457;DHT22;2751;49.802;9.944;2023-04-15T15:08:45;10.10;1.00
5457;DHT22;2751;49.802;9.944;2023-04-15T15:11:12;9.90;16.40
5457;DHT22;2751;49.802;9.944;2023-04-15T15:13:39;9.90;99.90
5457;DHT22;2751;49.802;9.944;2023-04-15T15:16:08;10.00;99.90
5457;DHT22;2751;49.802;9.944;2023-04-15T15:18:35;10.00;1.00
5457;DHT22;2751;49.802;9.944;2023-04-15T15:21:02;10.00;1.00
5457;DHT22;2751;49.802;9.944;2023-04-15T15:23:28;9.90;1.00
5457;DHT22;2751;49.802;9.944;2023-04-15T15:25:57;9.70;99.90
5457;DHT22;2751;49.802;9.944;2023-04-15T15:28:24;9.70;99.90
5457;DHT22;2751;49.802;9.944;2023-04-15T15:30:51;9.80;99.90
5457;DHT22;2751;49.802;9.944;2023-04-15T15:33:19;9.80;99.90
5457;DHT22;2751;49.802;9.944;2023-04-15T15:35:46;9.60;99.90
5457;DHT22;2751;49.802;9.944;2023-04-15T15:38:13;9.80;99.90
5457;DHT22;2751;49.802;9.944;2023-04-15T15:40:40;9.70;65.10
5457;DHT22;2751;49.802;9.944;2023-04-15T15:43:07;9.70;99.90
5457;DHT22;2751;49.802;9.944;2023-04-15T15:45:34;9.70;99.90
5457;DHT22;2751;49.802;9.944;2023-04-15T15:48:01;9.70;1.00
5457;DHT22;2751;49.802;9.944;2023-04-15T15:50:30;9.70;99.90
5457;DHT22;2751;49.802;9.944;2023-04-15T15:52:57;9.70;99.90
5457;DHT22;2751;49.802;9.944;2023-04-15T15:55:24;9.80;1.00
5457;DHT22;2751;49.802;9.944;2023-04-15T15:57:51;9.70;1.00
5457;DHT22;2751;49.802;9.944;2023-04-15T16:00:18;9.60;1.00
5457;DHT22;2751;49.802;9.944;2023-04-15T16:02:45;9.60;1.00
5457;DHT22;2751;49.802;9.944;2023-04-15T16:05:12;9.60;99.90
5457;DHT22;2751;49.802;9.944;2023-04-15T16:07:41;9.50;1.00
5457;DHT22;2751;49.802;9.944;2023-04-15T16:10:09;9.40;1.00
5457;DHT22;2751;49.802;9.944;2023-04-15T16:12:37;9.30;1.00
5457;DHT22;2751;49.802;9.944;2023-04-15T16:15:04;9.40;99.90
5457;DHT22;2751;49.802;9.944;2023-04-15T16:17:32;9.40;99.90
5457;DHT22;2751;49.802;9.944;2023-04-15T16:19:58;9.90;1.00
5457;DHT22;2751;49.802;9.944;2023-04-15T16:22:30;9.70;1.00
5457;DHT22;2751;49.802;9.944;2023-04-15T16:24:58;9.50;1.00